sensor_id;sensor_type;location;lat;lon;timestamp;pressure;altitude;pressure_sealevel;temperature;humidity
37856;BME280;23694;43.274;26.924;2022-07-19T00:02:10;99567.28;;;18.46;54.96
37856;BME280;23694;43.274;26.924;2022-07-19T00:04:36;99572.16;;;18.41;55.06
37856;BME280;23694;43.274;26.924;2022-07-19T00:07:02;99560.84;;;18.38;55.09
37856;BME280;23694;43.274;26.924;2022-07-19T00:09:28;99562.25;;;18.43;55.08
37856;BME280;23694;43.274;26.924;2022-07-19T00:11:55;99560.28;;;18.45;54.74
37856;BME280;23694;43.274;26.924;2022-07-19T00:14:21;99565.19;;;18.49;54.58
37856;BME280;23694;43.274;26.924;2022-07-19T00:16:48;99566.44;;;18.45;54.68
37856;BME280;23694;43.274;26.924;2022-07-19T00:19:15;99555.97;;;18.44;54.97
37856;BME280;23694;43.274;26.924;2022-07-19T00:21:41;99555.69;;;18.37;55.18
37856;BME280;23694;43.274;26.924;2022-07-19T00:24:07;99560.84;;;18.29;55.42
37856;BME280;23694;43.274;26.924;2022-07-19T00:26:34;99552.19;;;18.27;55.47
37856;BME280;23694;43.274;26.924;2022-07-19T00:29:00;99554.56;;;18.30;55.55
37856;BME280;23694;43.274;26.924;2022-07-19T00:31:28;99552.06;;;18.28;55.63
37856;BME280;23694;43.274;26.924;2022-07-19T00:33:54;99553.59;;;18.31;55.28
37856;BME280;23694;43.274;26.924;2022-07-19T00:36:20;99553.75;;;18.29;55.14
37856;BME280;23694;43.274;26.924;2022-07-19T00:38:46;99543.97;;;18.30;55.19
37856;BME280;23694;43.274;26.924;2022-07-19T00:41:13;99551.78;;;18.22;55.33
37856;BME280;23694;43.274;26.924;2022-07-19T00:43:40;99551.06;;;18.20;55.54
37856;BME280;23694;43.274;26.924;2022-07-19T00:46:20;99538.78;;;18.19;55.45
37856;BME280;23694;43.274;26.924;2022-07-19T00:48:50;99545.19;;;18.16;55.38
37856;BME280;23694;43.274;26.924;2022-07-19T00:51:17;99541.56;;;18.08;55.51
37856;BME280;23694;43.274;26.924;2022-07-19T00:53:45;99536.66;;;18.03;55.70
37856;BME280;23694;43.274;26.924;2022-07-19T00:56:12;99538.19;;;18.05;55.62
37856;BME280;23694;43.274;26.924;2022-07-19T00:58:39;99532.63;;;18.09;55.71
37856;BME280;23694;43.274;26.924;2022-07-19T01:01:07;99534.84;;;18.03;55.73
37856;BME280;23694;43.274;26.924;2022-07-19T01:03:38;99528.44;;;18.06;55.61
37856;BME280;23694;43.274;26.924;2022-07-19T01:06:06;99528.84;;;18.01;55.49
37856;BME280;23694;43.274;26.924;2022-07-19T01:08:33;99531.09;;;18.06;55.41
37856;BME280;23694;43.274;26.924;2022-07-19T01:10:59;99519.78;;;18.04;55.52
37856;BME280;23694;43.274;26.924;2022-07-19T01:13:25;99525.94;;;18.04;55.38
37856;BME280;23694;43.274;26.924;2022-07-19T01:15:51;99521.59;;;18.03;55.25
37856;BME280;23694;43.274;26.924;2022-07-19T01:18:17;99519.78;;;18.14;54.94
37856;BME280;23694;43.274;26.924;2022-07-19T01:20:43;99523.28;;;18.14;54.58
37856;BME280;23694;43.274;26.924;2022-07-19T01:23:09;99522.16;;;18.17;54.65
37856;BME280;23694;43.274;26.924;2022-07-19T01:25:36;99527.19;;;18.20;54.49
37856;BME280;23694;43.274;26.924;2022-07-19T01:28:07;99523.84;;;18.18;54.52
37856;BME280;23694;43.274;26.924;2022-07-19T01:30:34;99519.38;;;18.18;54.50
37856;BME280;23694;43.274;26.924;2022-07-19T01:33:00;99523.56;;;18.11;54.80
37856;BME280;23694;43.274;26.924;2022-07-19T01:35:27;99521.03;;;18.10;54.69
37856;BME280;23694;43.274;26.924;2022-07-19T01:37:55;99522.44;;;17.94;55.33
37856;BME280;23694;43.274;26.924;2022-07-19T01:40:22;99514.19;;;17.97;55.28
37856;BME280;23694;43.274;26.924;2022-07-19T01:42:49;99518.81;;;17.95;54.84
37856;BME280;23694;43.274;26.924;2022-07-19T01:45:16;99515.88;;;17.98;54.66
37856;BME280;23694;43.274;26.924;2022-07-19T01:47:43;99517.97;;;17.95;54.82
37856;BME280;23694;43.274;26.924;2022-07-19T01:50:12;99524.38;;;18.02;54.59
37856;BME280;23694;43.274;26.924;2022-07-19T01:52:38;99528.84;;;17.92;54.95
37856;BME280;23694;43.274;26.924;2022-07-19T01:55:05;99522.56;;;17.93;54.98
37856;BME280;23694;43.274;26.924;2022-07-19T01:57:31;99520.19;;;17.90;54.96
37856;BME280;23694;43.274;26.924;2022-07-19T01:59:58;99519.69;;;17.65;55.57
37856;BME280;23694;43.274;26.924;2022-07-19T02:02:24;99526.94;;;17.63;55.78
37856;BME280;23694;43.274;26.924;2022-07-19T02:04:51;99517.19;;;17.64;55.56
37856;BME280;23694;43.274;26.924;2022-07-19T02:07:17;99519.44;;;17.68;55.50
37856;BME280;23694;43.274;26.924;2022-07-19T02:09:43;99515.69;;;17.71;55.44
37856;BME280;23694;43.274;26.924;2022-07-19T02:12:09;99512.22;;;17.70;55.12
37856;BME280;23694;43.274;26.924;2022-07-19T02:14:35;99517.09;;;17.75;54.70
37856;BME280;23694;43.274;26.924;2022-07-19T02:17:02;99519.34;;;17.80;54.66
37856;BME280;23694;43.274;26.924;2022-07-19T02:19:28;99525.03;;;17.75;54.62
37856;BME280;23694;43.274;26.924;2022-07-19T02:21:54;99516.94;;;17.67;54.67
37856;BME280;23694;43.274;26.924;2022-07-19T02:24:20;99522.94;;;17.69;54.53
37856;BME280;23694;43.274;26.924;2022-07-19T02:26:46;99527.78;;;17.64;54.91
37856;BME280;23694;43.274;26.924;2022-07-19T02:29:12;99524.56;;;17.60;54.98
37856;BME280;23694;43.274;26.924;2022-07-19T02:31:38;99526.81;;;17.65;54.88
37856;BME280;23694;43.274;26.924;2022-07-19T02:34:04;99526.09;;;17.63;55.21
37856;BME280;23694;43.274;26.924;2022-07-19T02:36:30;99521.22;;;17.58;55.55
37856;BME280;23694;43.274;26.924;2022-07-19T02:38:56;99532.78;;;17.57;55.53
37856;BME280;23694;43.274;26.924;2022-07-19T02:41:24;99519.06;;;17.52;55.59
37856;BME280;23694;43.274;26.924;2022-07-19T02:43:50;99518.09;;;17.53;55.60
37856;BME280;23694;43.274;26.924;2022-07-19T02:46:16;99520.22;;;17.59;55.45
37856;BME280;23694;43.274;26.924;2022-07-19T02:48:42;99515.78;;;17.60;55.88
37856;BME280;23694;43.274;26.924;2022-07-19T02:51:11;99526.94;;;17.63;55.70
37856;BME280;23694;43.274;26.924;2022-07-19T02:53:37;99523.59;;;17.61;55.96
37856;BME280;23694;43.274;26.924;2022-07-19T02:56:04;99526.38;;;17.60;55.88
37856;BME280;23694;43.274;26.924;2022-07-19T02:58:30;99525.19;;;17.53;55.52
37856;BME280;23694;43.274;26.924;2022-07-19T03:00:56;99533.00;;;17.54;55.46
37856;BME280;23694;43.274;26.924;2022-07-19T03:03:22;99524.63;;;17.49;55.18
37856;BME280;23694;43.274;26.924;2022-07-19T03:06:07;99534.03;;;17.63;54.50
37856;BME280;23694;43.274;26.924;2022-07-19T03:08:33;99534.00;;;17.84;53.76
37856;BME280;23694;43.274;26.924;2022-07-19T03:10:59;99534.16;;;18.11;52.82
37856;BME280;23694;43.274;26.924;2022-07-19T03:13:25;99539.91;;;18.35;51.65
37856;BME280;23694;43.274;26.924;2022-07-19T03:15:51;99542.00;;;18.42;53.13
37856;BME280;23694;43.274;26.924;2022-07-19T03:18:17;99551.38;;;18.46;55.04
37856;BME280;23694;43.274;26.924;2022-07-19T03:20:43;99551.78;;;18.51;55.20
37856;BME280;23694;43.274;26.924;2022-07-19T03:23:09;99549.97;;;18.80;54.86
37856;BME280;23694;43.274;26.924;2022-07-19T03:25:36;99547.53;;;19.16;53.80
37856;BME280;23694;43.274;26.924;2022-07-19T03:28:02;99549.09;;;19.55;52.39
37856;BME280;23694;43.274;26.924;2022-07-19T03:30:28;99547.31;;;19.74;50.79
37856;BME280;23694;43.274;26.924;2022-07-19T03:32:54;99547.81;;;19.87;49.09
37856;BME280;23694;43.274;26.924;2022-07-19T03:35:20;99539.53;;;20.08;47.40
37856;BME280;23694;43.274;26.924;2022-07-19T03:37:47;99544.22;;;20.23;46.77
37856;BME280;23694;43.274;26.924;2022-07-19T03:40:13;99543.25;;;20.42;46.24
37856;BME280;23694;43.274;26.924;2022-07-19T03:42:39;99546.94;;;20.67;45.48
37856;BME280;23694;43.274;26.924;2022-07-19T03:45:06;99545.00;;;20.95;44.94
37856;BME280;23694;43.274;26.924;2022-07-19T03:47:32;99544.09;;;21.30;44.15
37856;BME280;23694;43.274;26.924;2022-07-19T03:49:58;99541.25;;;21.58;43.70
37856;BME280;23694;43.274;26.924;2022-07-19T03:52:24;99543.53;;;21.95;42.33
37856;BME280;23694;43.274;26.924;2022-07-19T03:54:50;99547.31;;;22.42;41.19
37856;BME280;23694;43.274;26.924;2022-07-19T03:57:17;99550.81;;;22.75;40.35
37856;BME280;23694;43.274;26.924;2022-07-19T03:59:43;99553.81;;;23.21;39.46
37856;BME280;23694;43.274;26.924;2022-07-19T04:02:09;99550.72;;;23.65;38.52
37856;BME280;23694;43.274;26.924;2022-07-19T04:04:35;99551.47;;;24.13;37.61
37856;BME280;23694;43.274;26.924;2022-07-19T04:07:01;99560.03;;;24.62;36.85
37856;BME280;23694;43.274;26.924;2022-07-19T04:09:28;99558.56;;;24.97;35.48
37856;BME280;23694;43.274;26.924;2022-07-19T04:11:54;99564.44;;;25.30;35.05
37856;BME280;23694;43.274;26.924;2022-07-19T04:14:20;99562.81;;;25.58;34.81
37856;BME280;23694;43.274;26.924;2022-07-19T04:16:46;99563.88;;;25.94;34.31
37856;BME280;23694;43.274;26.924;2022-07-19T04:19:12;99563.16;;;25.85;35.60
37856;BME280;23694;43.274;26.924;2022-07-19T04:21:38;99569.75;;;25.68;35.76
37856;BME280;23694;43.274;26.924;2022-07-19T04:24:04;99567.91;;;25.68;35.98
37856;BME280;23694;43.274;26.924;2022-07-19T04:26:31;99577.19;;;25.28;36.82
37856;BME280;23694;43.274;26.924;2022-07-19T04:28:57;99570.19;;;25.56;36.86
37856;BME280;23694;43.274;26.924;2022-07-19T04:31:23;99572.97;;;25.92;36.08
37856;BME280;23694;43.274;26.924;2022-07-19T04:33:49;99571.81;;;26.16;35.35
37856;BME280;23694;43.274;26.924;2022-07-19T04:36:15;99577.56;;;26.49;34.47
37856;BME280;23694;43.274;26.924;2022-07-19T04:38:42;99582.69;;;26.87;34.13
37856;BME280;23694;43.274;26.924;2022-07-19T04:41:08;99581.41;;;27.32;33.47
37856;BME280;23694;43.274;26.924;2022-07-19T04:43:34;99578.53;;;27.68;32.89
37856;BME280;23694;43.274;26.924;2022-07-19T04:46:00;99577.69;;;28.09;32.41
37856;BME280;23694;43.274;26.924;2022-07-19T04:48:27;99578.69;;;28.76;31.43
37856;BME280;23694;43.274;26.924;2022-07-19T04:50:53;99578.28;;;28.98;30.79
37856;BME280;23694;43.274;26.924;2022-07-19T04:53:19;99579.72;;;28.75;30.82
37856;BME280;23694;43.274;26.924;2022-07-19T04:55:45;99586.38;;;29.05;30.97
37856;BME280;23694;43.274;26.924;2022-07-19T04:58:11;99581.16;;;29.23;30.92
37856;BME280;23694;43.274;26.924;2022-07-19T05:00:37;99588.03;;;29.39;30.56
37856;BME280;23694;43.274;26.924;2022-07-19T05:03:03;99589.81;;;29.72;30.48
37856;BME280;23694;43.274;26.924;2022-07-19T05:05:31;99584.47;;;29.58;30.33
37856;BME280;23694;43.274;26.924;2022-07-19T05:07:57;99584.84;;;29.69;30.43
37856;BME280;23694;43.274;26.924;2022-07-19T05:10:23;99584.81;;;29.82;29.72
37856;BME280;23694;43.274;26.924;2022-07-19T05:12:50;99582.75;;;29.77;30.25
37856;BME280;23694;43.274;26.924;2022-07-19T05:15:16;99585.22;;;29.79;29.28
37856;BME280;23694;43.274;26.924;2022-07-19T05:17:42;99584.56;;;30.41;28.38
37856;BME280;23694;43.274;26.924;2022-07-19T05:20:09;99594.31;;;30.04;27.29
37856;BME280;23694;43.274;26.924;2022-07-19T05:22:36;99593.03;;;30.13;28.10
37856;BME280;23694;43.274;26.924;2022-07-19T05:25:02;99585.09;;;29.60;27.21
37856;BME280;23694;43.274;26.924;2022-07-19T05:27:29;99589.28;;;29.50;26.86
37856;BME280;23694;43.274;26.924;2022-07-19T05:29:55;99594.44;;;29.25;27.45
37856;BME280;23694;43.274;26.924;2022-07-19T05:32:21;99591.16;;;28.90;28.02
37856;BME280;23694;43.274;26.924;2022-07-19T05:34:48;99589.59;;;28.34;28.44
37856;BME280;23694;43.274;26.924;2022-07-19T05:37:14;99594.34;;;27.50;29.97
37856;BME280;23694;43.274;26.924;2022-07-19T05:39:40;99591.47;;;26.74;32.13
37856;BME280;23694;43.274;26.924;2022-07-19T05:42:07;99585.94;;;26.40;32.27
37856;BME280;23694;43.274;26.924;2022-07-19T05:44:33;99587.28;;;26.00;32.83
37856;BME280;23694;43.274;26.924;2022-07-19T05:46:59;99587.78;;;25.88;33.79
37856;BME280;23694;43.274;26.924;2022-07-19T05:49:25;99587.34;;;25.70;34.80
37856;BME280;23694;43.274;26.924;2022-07-19T05:51:51;99582.69;;;25.64;34.47
37856;BME280;23694;43.274;26.924;2022-07-19T05:54:18;99579.84;;;25.80;34.04
37856;BME280;23694;43.274;26.924;2022-07-19T05:56:44;99590.91;;;25.92;34.55
37856;BME280;23694;43.274;26.924;2022-07-19T05:59:10;99583.69;;;25.92;33.80
37856;BME280;23694;43.274;26.924;2022-07-19T06:01:36;99582.97;;;25.84;33.85
37856;BME280;23694;43.274;26.924;2022-07-19T06:04:03;99583.13;;;26.12;33.70
37856;BME280;23694;43.274;26.924;2022-07-19T06:06:31;99590.16;;;25.98;34.75
37856;BME280;23694;43.274;26.924;2022-07-19T06:08:59;99588.44;;;25.76;34.43
37856;BME280;23694;43.274;26.924;2022-07-19T06:11:26;99580.94;;;25.71;35.47
37856;BME280;23694;43.274;26.924;2022-07-19T06:13:53;99588.81;;;25.73;34.73
37856;BME280;23694;43.274;26.924;2022-07-19T06:16:20;99586.38;;;26.07;34.37
37856;BME280;23694;43.274;26.924;2022-07-19T06:18:49;99583.47;;;26.23;34.00
37856;BME280;23694;43.274;26.924;2022-07-19T06:21:17;99588.22;;;26.07;33.00
37856;BME280;23694;43.274;26.924;2022-07-19T06:23:45;99581.66;;;26.09;33.61
37856;BME280;23694;43.274;26.924;2022-07-19T06:26:12;99582.25;;;25.75;34.28
37856;BME280;23694;43.274;26.924;2022-07-19T06:28:39;99584.72;;;26.06;33.86
37856;BME280;23694;43.274;26.924;2022-07-19T06:31:10;99585.03;;;26.33;31.73
37856;BME280;23694;43.274;26.924;2022-07-19T06:33:39;99592.78;;;26.06;32.38
37856;BME280;23694;43.274;26.924;2022-07-19T06:36:06;99585.13;;;25.74;33.53
37856;BME280;23694;43.274;26.924;2022-07-19T06:38:32;99586.84;;;25.96;33.15
37856;BME280;23694;43.274;26.924;2022-07-19T06:40:58;99590.28;;;25.75;33.85
37856;BME280;23694;43.274;26.924;2022-07-19T06:43:24;99585.00;;;25.52;32.80
37856;BME280;23694;43.274;26.924;2022-07-19T06:45:50;99592.47;;;25.27;33.57
37856;BME280;23694;43.274;26.924;2022-07-19T06:48:16;99587.97;;;25.72;32.12
37856;BME280;23694;43.274;26.924;2022-07-19T06:50:43;99590.28;;;26.05;32.39
37856;BME280;23694;43.274;26.924;2022-07-19T06:53:12;99591.28;;;26.04;32.76
37856;BME280;23694;43.274;26.924;2022-07-19T06:55:38;99589.66;;;25.73;33.27
37856;BME280;23694;43.274;26.924;2022-07-19T06:58:04;99591.09;;;25.46;32.71
37856;BME280;23694;43.274;26.924;2022-07-19T07:00:30;99592.88;;;25.54;33.14
37856;BME280;23694;43.274;26.924;2022-07-19T07:02:56;99588.97;;;25.42;32.83
37856;BME280;23694;43.274;26.924;2022-07-19T07:05:22;99588.25;;;25.63;32.97
37856;BME280;23694;43.274;26.924;2022-07-19T07:07:48;99592.56;;;25.93;32.40
37856;BME280;23694;43.274;26.924;2022-07-19T07:10:17;99597.13;;;25.63;33.25
37856;BME280;23694;43.274;26.924;2022-07-19T07:12:43;99591.88;;;25.70;33.98
37856;BME280;23694;43.274;26.924;2022-07-19T07:15:10;99592.88;;;25.39;32.78
37856;BME280;23694;43.274;26.924;2022-07-19T07:17:36;99602.22;;;25.43;32.03
37856;BME280;23694;43.274;26.924;2022-07-19T07:20:04;99598.56;;;25.21;31.94
37856;BME280;23694;43.274;26.924;2022-07-19T07:22:37;99605.41;;;25.24;31.94
37856;BME280;23694;43.274;26.924;2022-07-19T07:25:04;99601.47;;;25.49;32.69
37856;BME280;23694;43.274;26.924;2022-07-19T07:27:30;99600.28;;;25.67;30.81
37856;BME280;23694;43.274;26.924;2022-07-19T07:29:57;99599.38;;;25.74;31.22
37856;BME280;23694;43.274;26.924;2022-07-19T07:32:23;99603.31;;;25.93;31.46
37856;BME280;23694;43.274;26.924;2022-07-19T07:34:53;99597.41;;;25.83;31.17
37856;BME280;23694;43.274;26.924;2022-07-19T07:37:20;99592.84;;;26.49;31.94
37856;BME280;23694;43.274;26.924;2022-07-19T07:39:46;99596.97;;;26.66;29.71
37856;BME280;23694;43.274;26.924;2022-07-19T07:42:12;99591.94;;;26.42;29.50
37856;BME280;23694;43.274;26.924;2022-07-19T07:44:40;99582.44;;;26.25;29.91
37856;BME280;23694;43.274;26.924;2022-07-19T07:47:07;99598.22;;;26.13;28.29
37856;BME280;23694;43.274;26.924;2022-07-19T07:49:37;99589.16;;;25.99;28.57
37856;BME280;23694;43.274;26.924;2022-07-19T07:52:04;99581.53;;;26.17;28.78
37856;BME280;23694;43.274;26.924;2022-07-19T07:54:30;99586.06;;;26.17;29.16
37856;BME280;23694;43.274;26.924;2022-07-19T07:56:56;99586.53;;;26.20;28.51
37856;BME280;23694;43.274;26.924;2022-07-19T07:59:22;99582.59;;;26.38;28.34
37856;BME280;23694;43.274;26.924;2022-07-19T08:01:49;99582.34;;;26.33;27.77
37856;BME280;23694;43.274;26.924;2022-07-19T08:04:15;99589.38;;;26.34;26.66
37856;BME280;23694;43.274;26.924;2022-07-19T08:06:41;99590.09;;;26.64;28.13
37856;BME280;23694;43.274;26.924;2022-07-19T08:09:07;99582.22;;;26.83;27.30
37856;BME280;23694;43.274;26.924;2022-07-19T08:11:34;99583.97;;;27.19;26.09
37856;BME280;23694;43.274;26.924;2022-07-19T08:14:00;99586.25;;;27.43;26.51
37856;BME280;23694;43.274;26.924;2022-07-19T08:16:26;99580.56;;;26.82;27.19
37856;BME280;23694;43.274;26.924;2022-07-19T08:18:53;99575.97;;;26.76;27.27
37856;BME280;23694;43.274;26.924;2022-07-19T08:21:19;99583.16;;;26.69;27.68
37856;BME280;23694;43.274;26.924;2022-07-19T08:23:45;99574.56;;;27.02;26.53
37856;BME280;23694;43.274;26.924;2022-07-19T08:26:11;99574.28;;;27.25;26.81
37856;BME280;23694;43.274;26.924;2022-07-19T08:28:37;99569.53;;;27.55;26.46
37856;BME280;23694;43.274;26.924;2022-07-19T08:31:03;99581.06;;;27.76;26.57
37856;BME280;23694;43.274;26.924;2022-07-19T08:33:29;99575.09;;;27.88;26.35
37856;BME280;23694;43.274;26.924;2022-07-19T08:35:55;99574.97;;;27.61;24.26
37856;BME280;23694;43.274;26.924;2022-07-19T08:38:22;99581.41;;;27.32;24.14
37856;BME280;23694;43.274;26.924;2022-07-19T08:40:50;99570.63;;;27.04;25.71
37856;BME280;23694;43.274;26.924;2022-07-19T08:43:18;99554.34;;;27.12;25.37
37856;BME280;23694;43.274;26.924;2022-07-19T08:45:44;99568.19;;;27.09;24.90
37856;BME280;23694;43.274;26.924;2022-07-19T08:48:11;99582.88;;;26.85;25.21
37856;BME280;23694;43.274;26.924;2022-07-19T08:50:39;99566.63;;;26.51;25.17
37856;BME280;23694;43.274;26.924;2022-07-19T08:53:06;99571.03;;;26.80;23.89
37856;BME280;23694;43.274;26.924;2022-07-19T08:55:32;99560.44;;;27.28;24.15
37856;BME280;23694;43.274;26.924;2022-07-19T08:57:58;99566.34;;;27.38;23.98
37856;BME280;23694;43.274;26.924;2022-07-19T09:00:31;99559.69;;;27.34;24.48
37856;BME280;23694;43.274;26.924;2022-07-19T09:03:00;99573.44;;;27.52;24.91
37856;BME280;23694;43.274;26.924;2022-07-19T09:05:28;99565.41;;;27.24;25.22
37856;BME280;23694;43.274;26.924;2022-07-19T09:10:29;99554.81;;;27.51;24.81
37856;BME280;23694;43.274;26.924;2022-07-19T09:15:49;99562.59;;;27.67;23.78
37856;BME280;23694;43.274;26.924;2022-07-19T09:20:52;99557.72;;;27.90;23.40
37856;BME280;23694;43.274;26.924;2022-07-19T09:23:19;99539.06;;;27.47;23.62
37856;BME280;23694;43.274;26.924;2022-07-19T09:25:46;99551.94;;;26.96;24.59
37856;BME280;23694;43.274;26.924;2022-07-19T09:28:17;99545.56;;;26.76;25.67
37856;BME280;23694;43.274;26.924;2022-07-19T09:30:48;99553.31;;;26.85;24.97
37856;BME280;23694;43.274;26.924;2022-07-19T09:33:23;99549.63;;;27.14;25.11
37856;BME280;23694;43.274;26.924;2022-07-19T09:36:13;99536.72;;;27.72;25.27
37856;BME280;23694;43.274;26.924;2022-07-19T09:38:40;99545.22;;;28.24;24.62
37856;BME280;23694;43.274;26.924;2022-07-19T09:41:17;99548.47;;;28.13;23.55
37856;BME280;23694;43.274;26.924;2022-07-19T09:46:52;99532.75;;;28.16;25.06
37856;BME280;23694;43.274;26.924;2022-07-19T09:49:18;99538.94;;;28.10;23.21
37856;BME280;23694;43.274;26.924;2022-07-19T09:51:50;99547.41;;;27.59;24.24
37856;BME280;23694;43.274;26.924;2022-07-19T09:54:19;99534.88;;;27.38;24.49
37856;BME280;23694;43.274;26.924;2022-07-19T09:56:46;99550.44;;;27.15;24.54
37856;BME280;23694;43.274;26.924;2022-07-19T09:59:14;99542.41;;;27.50;24.52
37856;BME280;23694;43.274;26.924;2022-07-19T10:01:41;99534.44;;;27.35;24.42
37856;BME280;23694;43.274;26.924;2022-07-19T10:04:19;99545.84;;;27.09;24.69
37856;BME280;23694;43.274;26.924;2022-07-19T10:06:47;99540.41;;;26.74;24.98
37856;BME280;23694;43.274;26.924;2022-07-19T10:09:16;99526.81;;;26.82;25.13
37856;BME280;23694;43.274;26.924;2022-07-19T10:11:43;99533.84;;;26.83;25.31
37856;BME280;23694;43.274;26.924;2022-07-19T10:14:10;99536.19;;;26.93;25.37
37856;BME280;23694;43.274;26.924;2022-07-19T10:21:48;99534.97;;;27.24;25.23
37856;BME280;23694;43.274;26.924;2022-07-19T10:29:53;99522.41;;;27.65;24.91
37856;BME280;23694;43.274;26.924;2022-07-19T10:32:40;99518.00;;;27.99;24.78
37856;BME280;23694;43.274;26.924;2022-07-19T10:35:27;99515.59;;;28.24;24.09
37856;BME280;23694;43.274;26.924;2022-07-19T10:38:07;99513.47;;;28.13;24.17
37856;BME280;23694;43.274;26.924;2022-07-19T10:40:44;99501.03;;;28.12;24.66
37856;BME280;23694;43.274;26.924;2022-07-19T10:43:15;99511.47;;;28.34;24.16
37856;BME280;23694;43.274;26.924;2022-07-19T10:48:39;99495.66;;;28.05;24.15
37856;BME280;23694;43.274;26.924;2022-07-19T10:51:07;99488.34;;;27.92;24.40
37856;BME280;23694;43.274;26.924;2022-07-19T10:58:52;99487.09;;;27.40;25.06
37856;BME280;23694;43.274;26.924;2022-07-19T11:01:21;99495.63;;;27.16;25.85
37856;BME280;23694;43.274;26.924;2022-07-19T11:03:49;99486.34;;;27.19;25.02
37856;BME280;23694;43.274;26.924;2022-07-19T11:06:24;99476.75;;;27.37;25.26
37856;BME280;23694;43.274;26.924;2022-07-19T11:08:56;99476.94;;;27.90;25.54
37856;BME280;23694;43.274;26.924;2022-07-19T11:11:24;99471.75;;;27.82;24.41
37856;BME280;23694;43.274;26.924;2022-07-19T11:13:56;99471.69;;;27.62;25.15
37856;BME280;23694;43.274;26.924;2022-07-19T11:16:26;99474.28;;;27.97;25.15
37856;BME280;23694;43.274;26.924;2022-07-19T11:19:03;99464.78;;;27.46;25.25
37856;BME280;23694;43.274;26.924;2022-07-19T11:21:31;99455.88;;;27.46;25.57
37856;BME280;23694;43.274;26.924;2022-07-19T11:23:58;99461.63;;;27.36;24.90
37856;BME280;23694;43.274;26.924;2022-07-19T11:26:25;99464.88;;;27.66;25.00
37856;BME280;23694;43.274;26.924;2022-07-19T11:28:52;99461.16;;;27.67;24.97
37856;BME280;23694;43.274;26.924;2022-07-19T11:31:20;99465.09;;;27.71;25.21
37856;BME280;23694;43.274;26.924;2022-07-19T11:33:49;99456.84;;;27.93;25.34
37856;BME280;23694;43.274;26.924;2022-07-19T11:36:17;99450.94;;;28.30;25.62
37856;BME280;23694;43.274;26.924;2022-07-19T11:38:47;99443.25;;;28.80;24.16
37856;BME280;23694;43.274;26.924;2022-07-19T11:41:22;99440.16;;;28.90;23.69
37856;BME280;23694;43.274;26.924;2022-07-19T11:43:53;99438.72;;;28.61;23.86
37856;BME280;23694;43.274;26.924;2022-07-19T11:46:28;99448.41;;;28.09;24.11
37856;BME280;23694;43.274;26.924;2022-07-19T11:48:59;99441.59;;;28.06;24.32
37856;BME280;23694;43.274;26.924;2022-07-19T11:51:26;99430.19;;;28.04;24.44
37856;BME280;23694;43.274;26.924;2022-07-19T11:53:54;99430.41;;;28.56;24.32
37856;BME280;23694;43.274;26.924;2022-07-19T11:56:31;99427.09;;;28.21;24.42
37856;BME280;23694;43.274;26.924;2022-07-19T11:59:01;99436.41;;;27.98;24.60
37856;BME280;23694;43.274;26.924;2022-07-19T12:01:33;99443.38;;;27.79;24.64
37856;BME280;23694;43.274;26.924;2022-07-19T12:04:02;99442.94;;;27.76;25.09
37856;BME280;23694;43.274;26.924;2022-07-19T12:06:42;99430.75;;;27.87;24.35
37856;BME280;23694;43.274;26.924;2022-07-19T12:09:11;99425.22;;;28.21;24.33
37856;BME280;23694;43.274;26.924;2022-07-19T12:11:43;99434.78;;;28.30;24.20
37856;BME280;23694;43.274;26.924;2022-07-19T12:14:30;99421.72;;;28.47;23.87
37856;BME280;23694;43.274;26.924;2022-07-19T12:19:49;99413.03;;;28.32;24.15
37856;BME280;23694;43.274;26.924;2022-07-19T12:22:36;99414.03;;;28.18;24.37
37856;BME280;23694;43.274;26.924;2022-07-19T12:25:04;99408.84;;;28.16;24.63
37856;BME280;23694;43.274;26.924;2022-07-19T12:27:31;99406.16;;;28.23;24.79
37856;BME280;23694;43.274;26.924;2022-07-19T12:29:58;99412.78;;;28.07;24.61
37856;BME280;23694;43.274;26.924;2022-07-19T12:32:35;99413.38;;;27.96;24.92
37856;BME280;23694;43.274;26.924;2022-07-19T12:35:11;99396.84;;;28.05;24.87
37856;BME280;23694;43.274;26.924;2022-07-19T12:37:39;99391.06;;;28.28;24.91
37856;BME280;23694;43.274;26.924;2022-07-19T12:42:48;99396.00;;;28.51;24.21
37856;BME280;23694;43.274;26.924;2022-07-19T12:45:18;99392.31;;;28.32;24.93
37856;BME280;23694;43.274;26.924;2022-07-19T12:47:45;99397.69;;;28.26;25.05
37856;BME280;23694;43.274;26.924;2022-07-19T12:50:45;99385.41;;;27.90;25.13
37856;BME280;23694;43.274;26.924;2022-07-19T12:53:13;99392.66;;;27.90;25.37
37856;BME280;23694;43.274;26.924;2022-07-19T12:55:40;99388.59;;;28.27;24.72
37856;BME280;23694;43.274;26.924;2022-07-19T12:58:10;99381.31;;;28.21;24.53
37856;BME280;23694;43.274;26.924;2022-07-19T13:00:38;99374.88;;;28.41;24.13
37856;BME280;23694;43.274;26.924;2022-07-19T13:03:05;99375.69;;;28.75;23.46
37856;BME280;23694;43.274;26.924;2022-07-19T13:05:32;99374.00;;;28.94;24.34
37856;BME280;23694;43.274;26.924;2022-07-19T13:07:58;99367.34;;;28.96;23.82
37856;BME280;23694;43.274;26.924;2022-07-19T13:10:29;99369.94;;;29.16;24.22
37856;BME280;23694;43.274;26.924;2022-07-19T13:12:55;99373.03;;;29.20;24.06
37856;BME280;23694;43.274;26.924;2022-07-19T13:15:22;99377.19;;;29.22;24.02
37856;BME280;23694;43.274;26.924;2022-07-19T13:17:48;99368.88;;;29.30;23.46
37856;BME280;23694;43.274;26.924;2022-07-19T13:20:14;99366.78;;;29.32;23.60
37856;BME280;23694;43.274;26.924;2022-07-19T13:22:41;99363.34;;;29.12;23.71
37856;BME280;23694;43.274;26.924;2022-07-19T13:25:08;99365.31;;;28.72;24.32
37856;BME280;23694;43.274;26.924;2022-07-19T13:27:36;99358.28;;;28.51;24.58
37856;BME280;23694;43.274;26.924;2022-07-19T13:30:05;99379.88;;;28.38;24.72